sensor_id;sensor_type;location;lat;lon;timestamp;P1;durP1;ratioP1;P2;durP2;ratioP2
34673;SDS011;20879;55.668;37.858;2023-07-02T00:00:17;9.23;;;6.57;;
34673;SDS011;20879;55.668;37.858;2023-07-02T00:02:46;8.70;;;7.00;;
34673;SDS011;20879;55.668;37.858;2023-07-02T00:05:21;9.30;;;6.00;;
34673;SDS011;20879;55.668;37.858;2023-07-02T00:07:52;9.32;;;6.13;;
34673;SDS011;20879;55.668;37.858;2023-07-02T00:10:27;11.05;;;7.07;;
34673;SDS011;20879;55.668;37.858;2023-07-02T00:13:01;10.10;;;7.53;;
34673;SDS011;20879;55.668;37.858;2023-07-02T00:15:30;9.85;;;6.80;;
34673;SDS011;20879;55.668;37.858;2023-07-02T00:18:00;9.15;;;6.70;;
34673;SDS011;20879;55.668;37.858;2023-07-02T00:20:29;8.95;;;6.53;;
34673;SDS011;20879;55.668;37.858;2023-07-02T00:23:08;8.07;;;6.28;;
34673;SDS011;20879;55.668;37.858;2023-07-02T00:25:38;5.80;;;4.63;;
34673;SDS011;20879;55.668;37.858;2023-07-02T00:28:12;6.85;;;4.65;;
34673;SDS011;20879;55.668;37.858;2023-07-02T00:30:47;7.70;;;6.28;;
34673;SDS011;20879;55.668;37.858;2023-07-02T00:33:17;8.88;;;6.10;;
34673;SDS011;20879;55.668;37.858;2023-07-02T00:35:47;7.13;;;5.65;;
34673;SDS011;20879;55.668;37.858;2023-07-02T00:38:23;6.43;;;5.68;;
34673;SDS011;20879;55.668;37.858;2023-07-02T00:40:58;7.80;;;4.82;;
34673;SDS011;20879;55.668;37.858;2023-07-02T00:43:33;6.20;;;5.00;;
34673;SDS011;20879;55.668;37.858;2023-07-02T00:46:02;7.10;;;5.35;;
34673;SDS011;20879;55.668;37.858;2023-07-02T00:48:32;9.52;;;5.18;;
34673;SDS011;20879;55.668;37.858;2023-07-02T00:51:02;7.45;;;5.10;;
34673;SDS011;20879;55.668;37.858;2023-07-02T00:53:34;10.35;;;5.60;;
34673;SDS011;20879;55.668;37.858;2023-07-02T00:56:05;7.75;;;5.53;;
34673;SDS011;20879;55.668;37.858;2023-07-02T00:58:35;10.25;;;5.57;;
34673;SDS011;20879;55.668;37.858;2023-07-02T01:01:13;8.02;;;5.80;;
34673;SDS011;20879;55.668;37.858;2023-07-02T01:03:52;8.52;;;5.72;;
34673;SDS011;20879;55.668;37.858;2023-07-02T01:06:33;8.98;;;5.97;;
34673;SDS011;20879;55.668;37.858;2023-07-02T01:09:09;7.82;;;5.20;;
34673;SDS011;20879;55.668;37.858;2023-07-02T01:11:40;9.77;;;6.00;;
34673;SDS011;20879;55.668;37.858;2023-07-02T01:14:13;8.45;;;5.82;;
34673;SDS011;20879;55.668;37.858;2023-07-02T01:17:02;6.28;;;5.43;;
34673;SDS011;20879;55.668;37.858;2023-07-02T01:19:40;4.53;;;4.03;;
34673;SDS011;20879;55.668;37.858;2023-07-02T01:22:17;7.25;;;4.90;;
34673;SDS011;20879;55.668;37.858;2023-07-02T01:24:48;7.40;;;5.53;;
34673;SDS011;20879;55.668;37.858;2023-07-02T01:27:23;7.47;;;5.00;;
34673;SDS011;20879;55.668;37.858;2023-07-02T01:30:02;6.97;;;5.00;;
34673;SDS011;20879;55.668;37.858;2023-07-02T01:32:33;6.47;;;5.50;;
34673;SDS011;20879;55.668;37.858;2023-07-02T01:35:07;8.35;;;4.75;;
34673;SDS011;20879;55.668;37.858;2023-07-02T01:37:42;6.55;;;5.38;;
34673;SDS011;20879;55.668;37.858;2023-07-02T01:40:12;6.07;;;4.55;;
34673;SDS011;20879;55.668;37.858;2023-07-02T01:42:41;5.55;;;4.90;;
34673;SDS011;20879;55.668;37.858;2023-07-02T01:45:16;8.05;;;5.10;;
34673;SDS011;20879;55.668;37.858;2023-07-02T01:47:45;6.88;;;5.15;;
34673;SDS011;20879;55.668;37.858;2023-07-02T01:50:17;7.40;;;5.65;;
34673;SDS011;20879;55.668;37.858;2023-07-02T01:52:46;5.80;;;5.00;;
34673;SDS011;20879;55.668;37.858;2023-07-02T01:55:20;6.88;;;5.07;;
34673;SDS011;20879;55.668;37.858;2023-07-02T01:57:51;8.07;;;5.78;;
34673;SDS011;20879;55.668;37.858;2023-07-02T02:00:20;5.30;;;4.10;;
34673;SDS011;20879;55.668;37.858;2023-07-02T02:02:50;5.55;;;4.90;;
34673;SDS011;20879;55.668;37.858;2023-07-02T02:05:22;6.65;;;4.88;;
34673;SDS011;20879;55.668;37.858;2023-07-02T02:07:52;6.88;;;4.95;;
34673;SDS011;20879;55.668;37.858;2023-07-02T02:10:22;5.82;;;5.28;;
34673;SDS011;20879;55.668;37.858;2023-07-02T02:12:52;7.30;;;5.35;;
34673;SDS011;20879;55.668;37.858;2023-07-02T02:15:21;6.05;;;4.82;;
34673;SDS011;20879;55.668;37.858;2023-07-02T02:17:51;10.18;;;5.57;;
34673;SDS011;20879;55.668;37.858;2023-07-02T02:20:22;4.82;;;4.28;;
34673;SDS011;20879;55.668;37.858;2023-07-02T02:22:58;7.07;;;5.40;;
34673;SDS011;20879;55.668;37.858;2023-07-02T02:25:32;7.13;;;5.47;;
34673;SDS011;20879;55.668;37.858;2023-07-02T02:28:02;6.55;;;5.57;;
34673;SDS011;20879;55.668;37.858;2023-07-02T02:30:37;8.93;;;5.30;;
34673;SDS011;20879;55.668;37.858;2023-07-02T02:35:50;5.80;;;4.60;;
34673;SDS011;20879;55.668;37.858;2023-07-02T02:38:25;7.22;;;5.07;;
34673;SDS011;20879;55.668;37.858;2023-07-02T02:40:54;7.10;;;4.70;;
34673;SDS011;20879;55.668;37.858;2023-07-02T02:43:24;6.90;;;5.30;;
34673;SDS011;20879;55.668;37.858;2023-07-02T02:45:54;11.32;;;5.25;;
34673;SDS011;20879;55.668;37.858;2023-07-02T02:48:24;6.38;;;5.20;;
34673;SDS011;20879;55.668;37.858;2023-07-02T02:50:55;6.70;;;4.80;;
34673;SDS011;20879;55.668;37.858;2023-07-02T02:53:29;6.07;;;4.75;;
34673;SDS011;20879;55.668;37.858;2023-07-02T02:56:00;7.10;;;4.65;;
34673;SDS011;20879;55.668;37.858;2023-07-02T02:58:35;7.18;;;5.00;;
34673;SDS011;20879;55.668;37.858;2023-07-02T03:01:09;7.50;;;5.38;;
34673;SDS011;20879;55.668;37.858;2023-07-02T03:03:40;6.63;;;4.78;;
34673;SDS011;20879;55.668;37.858;2023-07-02T03:06:19;6.85;;;4.47;;
34673;SDS011;20879;55.668;37.858;2023-07-02T03:08:55;8.52;;;4.55;;
34673;SDS011;20879;55.668;37.858;2023-07-02T03:11:24;5.43;;;4.80;;
34673;SDS011;20879;55.668;37.858;2023-07-02T03:13:54;6.70;;;5.03;;
34673;SDS011;20879;55.668;37.858;2023-07-02T03:16:23;5.95;;;4.78;;
34673;SDS011;20879;55.668;37.858;2023-07-02T03:18:53;5.95;;;4.53;;
34673;SDS011;20879;55.668;37.858;2023-07-02T03:21:36;7.03;;;4.63;;
34673;SDS011;20879;55.668;37.858;2023-07-02T03:24:16;4.53;;;3.80;;
34673;SDS011;20879;55.668;37.858;2023-07-02T03:26:46;7.50;;;4.07;;
34673;SDS011;20879;55.668;37.858;2023-07-02T03:29:15;4.45;;;3.92;;
34673;SDS011;20879;55.668;37.858;2023-07-02T03:31:51;6.90;;;5.07;;
34673;SDS011;20879;55.668;37.858;2023-07-02T03:34:20;6.28;;;4.95;;
34673;SDS011;20879;55.668;37.858;2023-07-02T03:36:52;4.85;;;3.63;;
34673;SDS011;20879;55.668;37.858;2023-07-02T03:39:32;6.97;;;4.70;;
34673;SDS011;20879;55.668;37.858;2023-07-02T03:44:47;6.63;;;4.82;;
34673;SDS011;20879;55.668;37.858;2023-07-02T03:47:16;7.90;;;5.10;;
34673;SDS011;20879;55.668;37.858;2023-07-02T03:49:46;5.40;;;4.68;;
34673;SDS011;20879;55.668;37.858;2023-07-02T03:52:18;8.00;;;4.60;;
34673;SDS011;20879;55.668;37.858;2023-07-02T03:54:52;5.75;;;4.13;;
34673;SDS011;20879;55.668;37.858;2023-07-02T03:57:21;6.72;;;4.20;;
34673;SDS011;20879;55.668;37.858;2023-07-02T03:59:53;5.85;;;4.07;;
34673;SDS011;20879;55.668;37.858;2023-07-02T04:02:22;7.78;;;5.00;;
34673;SDS011;20879;55.668;37.858;2023-07-02T04:04:51;5.88;;;4.32;;
34673;SDS011;20879;55.668;37.858;2023-07-02T04:07:23;4.65;;;4.22;;
34673;SDS011;20879;55.668;37.858;2023-07-02T04:12:33;6.07;;;4.00;;
34673;SDS011;20879;55.668;37.858;2023-07-02T04:15:03;6.05;;;4.57;;
34673;SDS011;20879;55.668;37.858;2023-07-02T04:17:33;5.45;;;4.25;;
34673;SDS011;20879;55.668;37.858;2023-07-02T04:20:08;5.38;;;3.88;;
34673;SDS011;20879;55.668;37.858;2023-07-02T04:22:46;4.55;;;4.13;;
34673;SDS011;20879;55.668;37.858;2023-07-02T04:28:04;5.75;;;4.00;;
34673;SDS011;20879;55.668;37.858;2023-07-02T04:30:34;5.00;;;4.50;;
34673;SDS011;20879;55.668;37.858;2023-07-02T04:33:03;6.55;;;4.78;;
34673;SDS011;20879;55.668;37.858;2023-07-02T04:35:33;7.60;;;4.40;;
34673;SDS011;20879;55.668;37.858;2023-07-02T04:38:05;8.85;;;5.22;;
34673;SDS011;20879;55.668;37.858;2023-07-02T04:40:40;5.50;;;4.55;;
34673;SDS011;20879;55.668;37.858;2023-07-02T04:43:18;6.50;;;3.65;;
34673;SDS011;20879;55.668;37.858;2023-07-02T04:45:47;5.82;;;3.40;;
34673;SDS011;20879;55.668;37.858;2023-07-02T04:48:16;8.30;;;4.63;;
34673;SDS011;20879;55.668;37.858;2023-07-02T04:50:46;4.93;;;4.00;;
34673;SDS011;20879;55.668;37.858;2023-07-02T04:55:54;4.90;;;4.40;;
34673;SDS011;20879;55.668;37.858;2023-07-02T04:58:24;6.53;;;4.50;;
34673;SDS011;20879;55.668;37.858;2023-07-02T05:00:55;5.23;;;4.20;;
34673;SDS011;20879;55.668;37.858;2023-07-02T05:03:25;6.25;;;3.33;;
34673;SDS011;20879;55.668;37.858;2023-07-02T05:05:55;7.82;;;4.70;;
34673;SDS011;20879;55.668;37.858;2023-07-02T05:08:26;6.13;;;4.45;;
34673;SDS011;20879;55.668;37.858;2023-07-02T05:11:01;6.10;;;4.47;;
34673;SDS011;20879;55.668;37.858;2023-07-02T05:13:35;7.60;;;4.80;;
34673;SDS011;20879;55.668;37.858;2023-07-02T05:16:04;5.05;;;4.43;;
34673;SDS011;20879;55.668;37.858;2023-07-02T05:18:34;9.32;;;4.70;;
34673;SDS011;20879;55.668;37.858;2023-07-02T05:21:03;5.80;;;4.50;;
34673;SDS011;20879;55.668;37.858;2023-07-02T05:23:42;7.95;;;4.50;;
34673;SDS011;20879;55.668;37.858;2023-07-02T05:26:16;8.93;;;4.57;;
34673;SDS011;20879;55.668;37.858;2023-07-02T05:28:46;6.43;;;4.22;;
34673;SDS011;20879;55.668;37.858;2023-07-02T05:31:21;6.57;;;3.70;;
34673;SDS011;20879;55.668;37.858;2023-07-02T05:33:56;6.65;;;4.70;;
34673;SDS011;20879;55.668;37.858;2023-07-02T05:36:25;10.00;;;5.05;;
34673;SDS011;20879;55.668;37.858;2023-07-02T05:39:02;6.07;;;4.57;;
34673;SDS011;20879;55.668;37.858;2023-07-02T05:41:31;6.65;;;4.60;;
34673;SDS011;20879;55.668;37.858;2023-07-02T05:44:06;6.15;;;4.07;;
34673;SDS011;20879;55.668;37.858;2023-07-02T05:46:35;7.70;;;4.70;;
34673;SDS011;20879;55.668;37.858;2023-07-02T05:49:06;7.47;;;4.50;;
34673;SDS011;20879;55.668;37.858;2023-07-02T05:51:35;4.22;;;3.20;;
34673;SDS011;20879;55.668;37.858;2023-07-02T05:54:06;8.82;;;4.63;;
34673;SDS011;20879;55.668;37.858;2023-07-02T05:56:41;7.32;;;4.20;;
34673;SDS011;20879;55.668;37.858;2023-07-02T05:59:10;6.65;;;4.70;;
34673;SDS011;20879;55.668;37.858;2023-07-02T06:01:44;5.53;;;4.25;;
34673;SDS011;20879;55.668;37.858;2023-07-02T06:04:13;6.97;;;4.40;;
34673;SDS011;20879;55.668;37.858;2023-07-02T06:06:51;6.88;;;5.03;;
34673;SDS011;20879;55.668;37.858;2023-07-02T06:09:22;8.80;;;4.78;;
34673;SDS011;20879;55.668;37.858;2023-07-02T06:11:58;5.43;;;4.32;;
34673;SDS011;20879;55.668;37.858;2023-07-02T06:14:30;5.45;;;3.83;;
34673;SDS011;20879;55.668;37.858;2023-07-02T06:17:00;6.97;;;4.07;;
34673;SDS011;20879;55.668;37.858;2023-07-02T06:19:32;5.72;;;4.22;;
34673;SDS011;20879;55.668;37.858;2023-07-02T06:22:01;6.28;;;4.50;;
34673;SDS011;20879;55.668;37.858;2023-07-02T06:24:33;7.75;;;4.05;;
34673;SDS011;20879;55.668;37.858;2023-07-02T06:27:03;6.90;;;4.45;;
34673;SDS011;20879;55.668;37.858;2023-07-02T06:29:33;7.53;;;4.13;;
34673;SDS011;20879;55.668;37.858;2023-07-02T06:32:02;7.38;;;4.00;;
34673;SDS011;20879;55.668;37.858;2023-07-02T06:34:33;7.75;;;4.75;;
34673;SDS011;20879;55.668;37.858;2023-07-02T06:37:03;7.38;;;4.57;;
34673;SDS011;20879;55.668;37.858;2023-07-02T06:39:35;5.68;;;3.72;;
34673;SDS011;20879;55.668;37.858;2023-07-02T06:42:09;4.82;;;2.88;;
34673;SDS011;20879;55.668;37.858;2023-07-02T06:44:52;5.53;;;4.22;;
34673;SDS011;20879;55.668;37.858;2023-07-02T06:47:21;6.22;;;3.65;;
34673;SDS011;20879;55.668;37.858;2023-07-02T06:49:51;9.48;;;4.63;;
34673;SDS011;20879;55.668;37.858;2023-07-02T06:52:21;8.00;;;4.20;;
34673;SDS011;20879;55.668;37.858;2023-07-02T06:54:52;8.77;;;4.50;;
34673;SDS011;20879;55.668;37.858;2023-07-02T06:57:21;6.78;;;4.32;;
34673;SDS011;20879;55.668;37.858;2023-07-02T06:59:51;6.90;;;4.43;;
34673;SDS011;20879;55.668;37.858;2023-07-02T07:02:26;7.53;;;4.43;;
34673;SDS011;20879;55.668;37.858;2023-07-02T07:05:06;7.00;;;4.18;;
34673;SDS011;20879;55.668;37.858;2023-07-02T07:07:36;6.95;;;4.38;;
34673;SDS011;20879;55.668;37.858;2023-07-02T07:10:09;7.45;;;4.60;;
34673;SDS011;20879;55.668;37.858;2023-07-02T07:12:38;6.35;;;3.90;;
34673;SDS011;20879;55.668;37.858;2023-07-02T07:15:08;5.15;;;4.30;;
34673;SDS011;20879;55.668;37.858;2023-07-02T07:17:38;7.07;;;4.10;;
34673;SDS011;20879;55.668;37.858;2023-07-02T07:20:08;5.25;;;3.40;;
34673;SDS011;20879;55.668;37.858;2023-07-02T07:22:43;7.85;;;3.70;;
34673;SDS011;20879;55.668;37.858;2023-07-02T07:25:15;5.18;;;3.83;;
34673;SDS011;20879;55.668;37.858;2023-07-02T07:27:45;7.50;;;3.80;;
34673;SDS011;20879;55.668;37.858;2023-07-02T07:30:14;7.95;;;4.13;;
34673;SDS011;20879;55.668;37.858;2023-07-02T07:32:50;5.38;;;3.50;;
34673;SDS011;20879;55.668;37.858;2023-07-02T07:35:19;6.85;;;3.03;;
34673;SDS011;20879;55.668;37.858;2023-07-02T07:37:50;5.33;;;3.60;;
34673;SDS011;20879;55.668;37.858;2023-07-02T07:40:21;9.30;;;4.30;;
34673;SDS011;20879;55.668;37.858;2023-07-02T07:45:19;7.70;;;4.85;;
34673;SDS011;20879;55.668;37.858;2023-07-02T07:47:55;7.47;;;4.43;;
34673;SDS011;20879;55.668;37.858;2023-07-02T07:50:24;6.82;;;4.00;;
34673;SDS011;20879;55.668;37.858;2023-07-02T07:53:00;5.50;;;3.58;;
34673;SDS011;20879;55.668;37.858;2023-07-02T07:55:31;5.95;;;4.05;;
34673;SDS011;20879;55.668;37.858;2023-07-02T07:58:01;6.95;;;3.65;;
34673;SDS011;20879;55.668;37.858;2023-07-02T08:00:35;6.57;;;4.07;;
34673;SDS011;20879;55.668;37.858;2023-07-02T08:03:04;10.07;;;3.97;;
34673;SDS011;20879;55.668;37.858;2023-07-02T08:05:34;6.38;;;3.78;;
34673;SDS011;20879;55.668;37.858;2023-07-02T08:08:03;7.95;;;2.97;;
34673;SDS011;20879;55.668;37.858;2023-07-02T08:10:36;6.10;;;4.00;;
34673;SDS011;20879;55.668;37.858;2023-07-02T08:13:07;8.13;;;3.72;;
34673;SDS011;20879;55.668;37.858;2023-07-02T08:15:42;6.85;;;4.28;;
34673;SDS011;20879;55.668;37.858;2023-07-02T08:18:13;6.63;;;3.40;;
34673;SDS011;20879;55.668;37.858;2023-07-02T08:20:42;9.02;;;3.75;;
34673;SDS011;20879;55.668;37.858;2023-07-02T08:23:12;9.35;;;3.15;;
34673;SDS011;20879;55.668;37.858;2023-07-02T08:25:44;5.57;;;3.47;;
34673;SDS011;20879;55.668;37.858;2023-07-02T08:28:14;7.32;;;4.10;;
34673;SDS011;20879;55.668;37.858;2023-07-02T08:30:44;6.20;;;3.33;;
34673;SDS011;20879;55.668;37.858;2023-07-02T08:33:18;5.40;;;3.75;;
34673;SDS011;20879;55.668;37.858;2023-07-02T08:35:48;6.88;;;4.07;;
34673;SDS011;20879;55.668;37.858;2023-07-02T08:38:18;5.53;;;3.80;;
34673;SDS011;20879;55.668;37.858;2023-07-02T08:40:50;6.72;;;3.85;;
34673;SDS011;20879;55.668;37.858;2023-07-02T08:43:19;7.20;;;3.80;;
34673;SDS011;20879;55.668;37.858;2023-07-02T08:45:48;7.90;;;4.10;;
34673;SDS011;20879;55.668;37.858;2023-07-02T08:48:19;6.82;;;3.75;;
34673;SDS011;20879;55.668;37.858;2023-07-02T08:50:55;4.70;;;3.95;;
34673;SDS011;20879;55.668;37.858;2023-07-02T08:53:25;7.57;;;4.03;;
34673;SDS011;20879;55.668;37.858;2023-07-02T08:56:03;7.20;;;4.30;;
34673;SDS011;20879;55.668;37.858;2023-07-02T08:58:33;5.95;;;3.83;;
34673;SDS011;20879;55.668;37.858;2023-07-02T09:01:06;6.43;;;3.90;;
34673;SDS011;20879;55.668;37.858;2023-07-02T09:03:36;8.65;;;4.00;;
34673;SDS011;20879;55.668;37.858;2023-07-02T09:09:04;5.60;;;4.20;;
34673;SDS011;20879;55.668;37.858;2023-07-02T09:11:35;8.82;;;4.38;;
34673;SDS011;20879;55.668;37.858;2023-07-02T09:14:25;7.47;;;4.00;;
34673;SDS011;20879;55.668;37.858;2023-07-02T09:17:06;8.00;;;4.17;;
34673;SDS011;20879;55.668;37.858;2023-07-02T09:19:50;8.40;;;4.57;;
34673;SDS011;20879;55.668;37.858;2023-07-02T09:22:20;7.95;;;4.43;;
34673;SDS011;20879;55.668;37.858;2023-07-02T09:24:53;8.57;;;3.85;;
34673;SDS011;20879;55.668;37.858;2023-07-02T09:27:34;6.15;;;3.88;;
34673;SDS011;20879;55.668;37.858;2023-07-02T09:30:05;10.30;;;5.07;;
34673;SDS011;20879;55.668;37.858;2023-07-02T09:32:36;6.28;;;4.15;;
34673;SDS011;20879;55.668;37.858;2023-07-02T09:35:12;6.97;;;4.05;;
34673;SDS011;20879;55.668;37.858;2023-07-02T09:37:42;4.80;;;3.47;;
34673;SDS011;20879;55.668;37.858;2023-07-02T09:40:17;5.32;;;3.95;;
34673;SDS011;20879;55.668;37.858;2023-07-02T09:42:49;4.20;;;3.47;;
34673;SDS011;20879;55.668;37.858;2023-07-02T09:45:24;8.35;;;4.50;;
34673;SDS011;20879;55.668;37.858;2023-07-02T09:47:54;6.82;;;3.22;;
34673;SDS011;20879;55.668;37.858;2023-07-02T09:52:56;6.40;;;4.40;;
34673;SDS011;20879;55.668;37.858;2023-07-02T09:55:33;7.68;;;4.70;;
34673;SDS011;20879;55.668;37.858;2023-07-02T09:58:04;9.65;;;4.40;;
34673;SDS011;20879;55.668;37.858;2023-07-02T10:00:34;7.75;;;4.80;;
34673;SDS011;20879;55.668;37.858;2023-07-02T10:03:09;7.78;;;4.30;;
34673;SDS011;20879;55.668;37.858;2023-07-02T10:05:38;4.90;;;3.58;;
34673;SDS011;20879;55.668;37.858;2023-07-02T10:08:13;7.95;;;4.45;;
34673;SDS011;20879;55.668;37.858;2023-07-02T10:10:44;6.97;;;4.40;;
34673;SDS011;20879;55.668;37.858;2023-07-02T10:13:25;7.72;;;4.10;;
34673;SDS011;20879;55.668;37.858;2023-07-02T10:16:01;6.93;;;4.05;;
34673;SDS011;20879;55.668;37.858;2023-07-02T10:18:30;5.95;;;4.28;;
34673;SDS011;20879;55.668;37.858;2023-07-02T10:21:14;8.68;;;4.18;;
34673;SDS011;20879;55.668;37.858;2023-07-02T10:23:44;8.43;;;4.63;;
34673;SDS011;20879;55.668;37.858;2023-07-02T10:26:14;8.05;;;4.03;;
34673;SDS011;20879;55.668;37.858;2023-07-02T10:28:57;8.88;;;4.07;;
34673;SDS011;20879;55.668;37.858;2023-07-02T10:31:32;8.88;;;4.30;;
34673;SDS011;20879;55.668;37.858;2023-07-02T10:34:01;8.25;;;4.50;;
34673;SDS011;20879;55.668;37.858;2023-07-02T10:36:31;8.27;;;4.50;;
34673;SDS011;20879;55.668;37.858;2023-07-02T10:39:03;9.15;;;4.60;;
34673;SDS011;20879;55.668;37.858;2023-07-02T10:44:12;8.50;;;4.45;;
34673;SDS011;20879;55.668;37.858;2023-07-02T10:46:48;7.15;;;3.90;;
34673;SDS011;20879;55.668;37.858;2023-07-02T10:49:17;4.47;;;3.72;;
34673;SDS011;20879;55.668;37.858;2023-07-02T10:51:58;6.78;;;3.88;;
34673;SDS011;20879;55.668;37.858;2023-07-02T10:54:40;8.63;;;3.35;;
34673;SDS011;20879;55.668;37.858;2023-07-02T10:57:12;5.00;;;3.67;;
34673;SDS011;20879;55.668;37.858;2023-07-02T11:00:02;6.28;;;3.90;;
34673;SDS011;20879;55.668;37.858;2023-07-02T11:02:34;9.30;;;4.00;;
34673;SDS011;20879;55.668;37.858;2023-07-02T11:05:04;5.28;;;3.70;;
34673;SDS011;20879;55.668;37.858;2023-07-02T11:07:38;5.07;;;3.35;;
34673;SDS011;20879;55.668;37.858;2023-07-02T11:10:08;5.18;;;3.55;;
34673;SDS011;20879;55.668;37.858;2023-07-02T11:12:39;4.93;;;3.72;;
34673;SDS011;20879;55.668;37.858;2023-07-02T11:15:14;6.03;;;3.90;;
34673;SDS011;20879;55.668;37.858;2023-07-02T11:17:46;5.00;;;3.50;;
34673;SDS011;20879;55.668;37.858;2023-07-02T11:20:20;4.70;;;3.55;;
34673;SDS011;20879;55.668;37.858;2023-07-02T11:22:55;5.80;;;3.72;;
34673;SDS011;20879;55.668;37.858;2023-07-02T11:25:24;6.93;;;4.15;;
34673;SDS011;20879;55.668;37.858;2023-07-02T11:28:01;6.10;;;3.95;;
34673;SDS011;20879;55.668;37.858;2023-07-02T11:30:33;8.52;;;3.83;;
34673;SDS011;20879;55.668;37.858;2023-07-02T11:33:14;6.47;;;3.97;;
34673;SDS011;20879;55.668;37.858;2023-07-02T11:35:43;5.53;;;3.83;;
34673;SDS011;20879;55.668;37.858;2023-07-02T11:38:23;7.95;;;3.67;;
34673;SDS011;20879;55.668;37.858;2023-07-02T11:43:50;8.90;;;4.00;;
34673;SDS011;20879;55.668;37.858;2023-07-02T11:49:06;7.22;;;3.80;;
34673;SDS011;20879;55.668;37.858;2023-07-02T11:51:37;4.97;;;3.53;;
34673;SDS011;20879;55.668;37.858;2023-07-02T11:56:50;9.60;;;3.85;;
34673;SDS011;20879;55.668;37.858;2023-07-02T11:59:21;4.73;;;3.40;;
34673;SDS011;20879;55.668;37.858;2023-07-02T12:01:55;6.40;;;3.03;;
34673;SDS011;20879;55.668;37.858;2023-07-02T12:04:25;8.10;;;3.70;;
34673;SDS011;20879;55.668;37.858;2023-07-02T12:07:01;5.38;;;3.60;;
34673;SDS011;20879;55.668;37.858;2023-07-02T12:09:31;6.10;;;3.72;;
34673;SDS011;20879;55.668;37.858;2023-07-02T12:12:00;7.43;;;3.70;;
34673;SDS011;20879;55.668;37.858;2023-07-02T12:14:35;4.53;;;3.50;;
34673;SDS011;20879;55.668;37.858;2023-07-02T12:17:09;10.07;;;5.80;;
34673;SDS011;20879;55.668;37.858;2023-07-02T12:19:40;6.30;;;4.32;;
34673;SDS011;20879;55.668;37.858;2023-07-02T12:22:09;9.82;;;5.00;;
34673;SDS011;20879;55.668;37.858;2023-07-02T12:24:42;12.98;;;4.30;;
34673;SDS011;20879;55.668;37.858;2023-07-02T12:27:14;7.85;;;3.78;;
34673;SDS011;20879;55.668;37.858;2023-07-02T12:29:44;5.80;;;3.60;;
34673;SDS011;20879;55.668;37.858;2023-07-02T12:32:23;9.52;;;3.28;;
34673;SDS011;20879;55.668;37.858;2023-07-02T12:34:52;8.52;;;3.58;;
34673;SDS011;20879;55.668;37.858;2023-07-02T12:37:21;5.43;;;3.95;;
34673;SDS011;20879;55.668;37.858;2023-07-02T12:39:51;6.57;;;3.53;;
34673;SDS011;20879;55.668;37.858;2023-07-02T12:42:29;5.55;;;3.88;;
34673;SDS011;20879;55.668;37.858;2023-07-02T12:50:29;10.57;;;4.10;;
34673;SDS011;20879;55.668;37.858;2023-07-02T12:52:58;9.60;;;4.25;;
34673;SDS011;20879;55.668;37.858;2023-07-02T12:55:28;7.85;;;3.65;;
34673;SDS011;20879;55.668;37.858;2023-07-02T12:57:57;5.65;;;3.92;;
34673;SDS011;20879;55.668;37.858;2023-07-02T13:00:28;7.35;;;4.20;;
34673;SDS011;20879;55.668;37.858;2023-07-02T13:02:57;10.10;;;3.90;;
34673;SDS011;20879;55.668;37.858;2023-07-02T13:05:38;6.05;;;3.83;;
34673;SDS011;20879;55.668;37.858;2023-07-02T13:08:09;9.73;;;3.72;;
34673;SDS011;20879;55.668;37.858;2023-07-02T13:10:39;7.90;;;4.35;;
34673;SDS011;20879;55.668;37.858;2023-07-02T13:13:08;6.35;;;3.92;;
34673;SDS011;20879;55.668;37.858;2023-07-02T13:16:01;4.70;;;3.42;;
34673;SDS011;20879;55.668;37.858;2023-07-02T13:18:30;10.70;;;4.28;;
34673;SDS011;20879;55.668;37.858;2023-07-02T13:21:01;5.60;;;3.42;;
34673;SDS011;20879;55.668;37.858;2023-07-02T13:26:00;5.97;;;4.13;;
34673;SDS011;20879;55.668;37.858;2023-07-02T13:28:29;6.95;;;4.47;;
34673;SDS011;20879;55.668;37.858;2023-07-02T13:30:58;9.43;;;4.35;;
34673;SDS011;20879;55.668;37.858;2023-07-02T13:33:28;7.57;;;4.57;;
34673;SDS011;20879;55.668;37.858;2023-07-02T13:35:57;7.10;;;4.90;;
34673;SDS011;20879;55.668;37.858;2023-07-02T13:38:29;6.53;;;4.45;;
34673;SDS011;20879;55.668;37.858;2023-07-02T13:43:40;6.95;;;4.38;;
34673;SDS011;20879;55.668;37.858;2023-07-02T13:46:09;6.70;;;4.25;;
34673;SDS011;20879;55.668;37.858;2023-07-02T13:48:39;5.80;;;4.28;;
34673;SDS011;20879;55.668;37.858;2023-07-02T13:51:15;8.07;;;4.28;;
34673;SDS011;20879;55.668;37.858;2023-07-02T13:53:56;6.57;;;3.92;;
34673;SDS011;20879;55.668;37.858;2023-07-02T13:56:26;4.32;;;3.10;;
34673;SDS011;20879;55.668;37.858;2023-07-02T13:59:01;7.82;;;4.43;;
34673;SDS011;20879;55.668;37.858;2023-07-02T14:01:32;8.25;;;5.00;;
34673;SDS011;20879;55.668;37.858;2023-07-02T14:04:02;5.50;;;3.70;;
34673;SDS011;20879;55.668;37.858;2023-07-02T14:06:32;6.38;;;4.07;;
34673;SDS011;20879;55.668;37.858;2023-07-02T14:09:02;6.82;;;4.65;;
34673;SDS011;20879;55.668;37.858;2023-07-02T14:11:33;6.88;;;4.38;;
34673;SDS011;20879;55.668;37.858;2023-07-02T14:14:11;5.93;;;4.25;;
34673;SDS011;20879;55.668;37.858;2023-07-02T14:16:40;7.28;;;4.43;;
34673;SDS011;20879;55.668;37.858;2023-07-02T14:19:10;8.25;;;4.45;;
34673;SDS011;20879;55.668;37.858;2023-07-02T14:21:47;7.82;;;4.88;;
34673;SDS011;20879;55.668;37.858;2023-07-02T14:24:16;11.80;;;4.65;;
34673;SDS011;20879;55.668;37.858;2023-07-02T14:26:46;8.57;;;5.03;;
34673;SDS011;20879;55.668;37.858;2023-07-02T14:29:17;9.00;;;4.78;;
34673;SDS011;20879;55.668;37.858;2023-07-02T14:31:53;10.07;;;4.60;;
34673;SDS011;20879;55.668;37.858;2023-07-02T14:34:32;8.32;;;5.13;;
34673;SDS011;20879;55.668;37.858;2023-07-02T14:37:01;7.65;;;4.57;;
34673;SDS011;20879;55.668;37.858;2023-07-02T14:39:34;5.57;;;4.82;;
34673;SDS011;20879;55.668;37.858;2023-07-02T14:42:04;8.07;;;4.85;;
34673;SDS011;20879;55.668;37.858;2023-07-02T14:44:36;7.80;;;4.67;;
34673;SDS011;20879;55.668;37.858;2023-07-02T14:47:06;8.20;;;4.55;;
34673;SDS011;20879;55.668;37.858;2023-07-02T14:49:36;7.10;;;4.80;;
34673;SDS011;20879;55.668;37.858;2023-07-02T14:52:06;6.88;;;4.60;;
34673;SDS011;20879;55.668;37.858;2023-07-02T14:54:35;7.18;;;4.75;;
34673;SDS011;20879;55.668;37.858;2023-07-02T14:57:05;6.38;;;4.65;;
34673;SDS011;20879;55.668;37.858;2023-07-02T14:59:36;7.18;;;4.50;;
34673;SDS011;20879;55.668;37.858;2023-07-02T15:02:17;5.70;;;4.15;;
34673;SDS011;20879;55.668;37.858;2023-07-02T15:04:47;8.65;;;4.90;;
34673;SDS011;20879;55.668;37.858;2023-07-02T15:07:17;6.57;;;4.70;;
34673;SDS011;20879;55.668;37.858;2023-07-02T15:09:52;12.27;;;5.32;;
34673;SDS011;20879;55.668;37.858;2023-07-02T15:12:26;7.68;;;4.88;;
34673;SDS011;20879;55.668;37.858;2023-07-02T15:14:57;6.65;;;5.15;;
34673;SDS011;20879;55.668;37.858;2023-07-02T15:17:30;3.80;;;3.17;;
34673;SDS011;20879;55.668;37.858;2023-07-02T15:20:00;9.63;;;4.25;;
34673;SDS011;20879;55.668;37.858;2023-07-02T15:22:30;8.25;;;4.68;;
34673;SDS011;20879;55.668;37.858;2023-07-02T15:25:05;10.10;;;5.25;;
34673;SDS011;20879;55.668;37.858;2023-07-02T15:27:35;7.55;;;5.03;;
34673;SDS011;20879;55.668;37.858;2023-07-02T15:30:13;6.82;;;4.60;;
34673;SDS011;20879;55.668;37.858;2023-07-02T15:32:43;9.63;;;5.03;;
34673;SDS011;20879;55.668;37.858;2023-07-02T15:35:12;6.80;;;4.47;;
34673;SDS011;20879;55.668;37.858;2023-07-02T15:37:42;7.10;;;4.80;;
34673;SDS011;20879;55.668;37.858;2023-07-02T15:40:16;9.65;;;5.18;;
34673;SDS011;20879;55.668;37.858;2023-07-02T15:42:46;8.60;;;5.00;;
34673;SDS011;20879;55.668;37.858;2023-07-02T15:45:17;7.78;;;4.95;;